createdAt,value
2022-12-18T00:01:49.513Z,18.23
2022-12-18T00:04:23.738Z,17.00
2022-12-18T00:06:55.170Z,16.92
2022-12-18T00:09:24.902Z,17.25
2022-12-18T00:14:48.208Z,15.52
2022-12-18T00:17:17.667Z,17.77
2022-12-18T00:19:47.284Z,17.38
2022-12-18T00:22:17.997Z,16.33
2022-12-18T00:24:47.682Z,15.80
2022-12-18T00:27:17.092Z,18.80
2022-12-18T00:29:46.658Z,18.08
2022-12-18T00:32:16.190Z,15.98
2022-12-18T00:34:45.834Z,17.25
2022-12-18T00:37:20.018Z,19.25
2022-12-18T00:39:53.948Z,17.45
2022-12-18T00:42:40.500Z,16.00
2022-12-18T00:45:12.863Z,18.33
2022-12-18T00:47:42.812Z,16.58
2022-12-18T00:50:13.105Z,15.77
2022-12-18T00:52:45.672Z,15.32
2022-12-18T00:55:15.745Z,14.65
2022-12-18T00:57:45.559Z,14.65
2022-12-18T01:00:17.122Z,15.20
2022-12-18T01:02:46.468Z,14.18
2022-12-18T01:05:16.728Z,14.38
2022-12-18T01:07:47.404Z,13.90
2022-12-18T01:10:17.015Z,14.07
2022-12-18T01:12:46.246Z,13.02
2022-12-18T01:15:17.377Z,13.43
2022-12-18T01:17:46.847Z,11.98
2022-12-18T01:20:16.764Z,11.82
2022-12-18T01:22:47.624Z,11.35
2022-12-18T01:25:17.281Z,12.52
2022-12-18T01:27:46.780Z,11.70
2022-12-18T01:30:16.484Z,11.68
2022-12-18T01:32:45.817Z,12.43
2022-12-18T01:35:15.333Z,12.07
2022-12-18T01:37:44.629Z,12.90
2022-12-18T01:40:15.771Z,10.02
2022-12-18T01:42:44.950Z,11.30
2022-12-18T01:45:28.420Z,12.73
2022-12-18T01:47:59.829Z,11.63
2022-12-18T01:50:33.716Z,13.05
2022-12-18T01:53:07.027Z,12.20
2022-12-18T01:55:43.259Z,11.43
2022-12-18T01:58:12.807Z,11.63
2022-12-18T02:00:42.588Z,11.52
2022-12-18T02:03:12.060Z,12.70
2022-12-18T02:08:23.410Z,11.70
2022-12-18T02:11:05.641Z,12.38
2022-12-18T02:13:43.134Z,10.32
2022-12-18T02:16:21.456Z,11.82
2022-12-18T02:18:58.383Z,13.20
2022-12-18T02:21:36.634Z,11.88
2022-12-18T02:24:19.619Z,13.23
2022-12-18T02:26:53.870Z,11.55
2022-12-18T02:29:29.312Z,13.60
2022-12-18T02:32:01.695Z,13.75
2022-12-18T02:34:33.716Z,11.23
2022-12-18T02:37:07.936Z,11.73
2022-12-18T02:39:42.093Z,13.15
2022-12-18T02:42:15.381Z,13.05
2022-12-18T02:44:50.234Z,12.23
2022-12-18T02:47:25.194Z,12.57
2022-12-18T02:50:03.439Z,13.80
2022-12-18T02:52:42.699Z,12.50
2022-12-18T02:55:26.441Z,12.32
2022-12-18T02:58:07.907Z,13.85
2022-12-18T03:00:46.102Z,13.77
2022-12-18T03:03:22.321Z,13.30
2022-12-18T03:05:58.892Z,12.55
2022-12-18T03:08:32.290Z,12.27
2022-12-18T03:11:06.294Z,13.10
2022-12-18T03:13:43.040Z,12.35
2022-12-18T03:16:20.360Z,12.88
2022-12-18T03:18:54.413Z,11.90
2022-12-18T03:21:31.221Z,11.50
2022-12-18T03:24:02.303Z,11.70
2022-12-18T03:26:33.662Z,13.57
2022-12-18T03:29:11.380Z,12.07
2022-12-18T03:36:35.310Z,9.55
2022-12-18T03:39:05.174Z,9.90
2022-12-18T03:41:45.731Z,10.93
2022-12-18T03:44:41.550Z,10.70
2022-12-18T03:47:17.905Z,10.40
2022-12-18T03:49:56.373Z,10.32
2022-12-18T03:52:30.579Z,10.20
2022-12-18T03:55:02.712Z,9.35
2022-12-18T03:57:34.671Z,9.82
2022-12-18T04:00:11.802Z,9.05
2022-12-18T04:02:57.031Z,9.13
2022-12-18T04:05:38.108Z,9.98
2022-12-18T04:08:08.844Z,7.13
2022-12-18T04:10:41.315Z,8.02
2022-12-18T04:13:11.292Z,10.00
2022-12-18T04:15:42.423Z,9.82
2022-12-18T04:20:46.396Z,8.10
2022-12-18T04:23:16.085Z,8.75
2022-12-18T04:25:45.561Z,8.50
2022-12-18T04:28:20.554Z,8.60
2022-12-18T04:30:52.499Z,7.63
2022-12-18T04:33:23.178Z,7.63
2022-12-18T04:35:52.570Z,8.48
2022-12-18T04:38:22.251Z,7.88
2022-12-18T04:40:58.465Z,7.70
2022-12-18T04:43:30.180Z,6.95
2022-12-18T04:46:06.536Z,7.88
2022-12-18T04:48:36.450Z,7.00
2022-12-18T04:51:06.344Z,7.15
2022-12-18T04:53:36.021Z,7.78
2022-12-18T04:56:07.602Z,7.97
2022-12-18T04:58:37.688Z,6.90
2022-12-18T05:01:09.635Z,7.20
2022-12-18T05:03:40.197Z,6.75
2022-12-18T05:06:10.201Z,7.47
2022-12-18T05:08:39.994Z,8.15
2022-12-18T05:11:12.608Z,7.60
2022-12-18T05:13:42.467Z,8.75
2022-12-18T05:16:14.544Z,7.43
2022-12-18T05:18:44.436Z,7.57
2022-12-18T05:21:13.785Z,8.05
2022-12-18T05:23:43.762Z,7.13
2022-12-18T05:26:19.242Z,7.57
2022-12-18T05:28:49.066Z,6.80
2022-12-18T05:31:19.955Z,6.47
2022-12-18T05:33:49.570Z,7.03
2022-12-18T05:36:18.952Z,6.22
2022-12-18T05:38:48.695Z,6.68
2022-12-18T05:41:18.212Z,6.85
2022-12-18T05:43:47.829Z,6.93
2022-12-18T05:46:20.039Z,7.85
2022-12-18T05:48:51.330Z,6.95
2022-12-18T05:51:22.756Z,7.35
2022-12-18T05:53:52.601Z,6.30
2022-12-18T05:56:24.656Z,6.97
2022-12-18T05:58:55.902Z,6.63
2022-12-18T06:01:28.927Z,6.55
2022-12-18T06:03:58.740Z,7.00
2022-12-18T06:06:30.148Z,6.32
2022-12-18T06:09:00.205Z,7.25
2022-12-18T06:11:29.821Z,6.72
2022-12-18T06:14:00.398Z,6.28
2022-12-18T06:16:31.746Z,7.55
2022-12-18T06:19:02.403Z,6.53
2022-12-18T06:21:32.413Z,7.28
2022-12-18T06:24:03.415Z,6.85
2022-12-18T06:26:32.808Z,6.80
2022-12-18T06:29:02.467Z,6.53
2022-12-18T06:31:33.456Z,6.22
2022-12-18T06:34:05.232Z,6.10
2022-12-18T06:36:34.744Z,6.18
2022-12-18T06:39:04.841Z,5.93
2022-12-18T06:41:34.148Z,5.82
2022-12-18T06:44:04.188Z,6.82
2022-12-18T06:46:34.837Z,6.22
2022-12-18T06:49:04.519Z,6.07
2022-12-18T06:51:33.856Z,7.03
2022-12-18T06:54:03.596Z,7.28
2022-12-18T06:56:33.036Z,6.90
2022-12-18T06:59:02.731Z,7.75
2022-12-18T07:01:33.745Z,8.23
2022-12-18T07:04:03.512Z,7.10
2022-12-18T07:06:32.886Z,7.88
2022-12-18T07:09:02.615Z,6.10
2022-12-18T07:11:31.912Z,6.32
2022-12-18T07:14:01.723Z,6.93
2022-12-18T07:16:31.122Z,6.60
2022-12-18T07:19:02.151Z,6.32
2022-12-18T07:21:31.326Z,7.28
2022-12-18T07:24:01.051Z,7.30
2022-12-18T07:26:30.441Z,6.65
2022-12-18T07:29:00.160Z,7.00
2022-12-18T07:31:29.784Z,7.28
2022-12-18T07:33:59.517Z,6.95
2022-12-18T07:36:30.261Z,7.72
2022-12-18T07:38:59.888Z,6.28
2022-12-18T07:41:29.348Z,7.45
2022-12-18T07:43:58.903Z,6.82
2022-12-18T07:46:28.164Z,6.97
2022-12-18T07:48:57.734Z,6.90
2022-12-18T07:51:27.028Z,7.18
2022-12-18T07:53:58.922Z,7.15
2022-12-18T07:56:29.987Z,6.75
2022-12-18T07:59:00.894Z,6.97
2022-12-18T08:01:31.689Z,7.03
2022-12-18T08:04:01.322Z,7.28
2022-12-18T08:06:30.600Z,7.20
2022-12-18T08:09:01.893Z,7.07
2022-12-18T08:11:31.992Z,8.65
2022-12-18T08:14:01.685Z,8.98
2022-12-18T08:16:31.372Z,9.95
2022-12-18T08:19:00.971Z,9.85
2022-12-18T08:21:32.294Z,9.05
2022-12-18T08:24:04.586Z,7.30
2022-12-18T08:26:34.383Z,7.35
2022-12-18T08:29:04.065Z,9.95
2022-12-18T08:31:34.027Z,9.40
2022-12-18T08:34:04.107Z,8.63
2022-12-18T08:36:33.605Z,7.65
2022-12-18T08:39:04.959Z,7.63
2022-12-18T08:41:34.279Z,8.02
2022-12-18T08:44:21.659Z,8.60
2022-12-18T08:46:50.875Z,9.75
2022-12-18T08:49:20.559Z,8.35
2022-12-18T08:51:49.872Z,11.15
2022-12-18T08:54:20.825Z,11.15
2022-12-18T08:56:50.620Z,13.48
2022-12-18T08:59:20.725Z,8.77
2022-12-18T09:01:50.671Z,8.95
2022-12-18T09:04:20.654Z,10.25
2022-12-18T09:06:49.934Z,9.05
2022-12-18T09:09:20.775Z,12.65
2022-12-18T09:11:50.051Z,11.52
2022-12-18T09:14:19.653Z,10.20
2022-12-18T09:16:48.952Z,10.00
2022-12-18T09:19:18.650Z,10.98
2022-12-18T09:21:48.593Z,9.82
2022-12-18T09:24:20.391Z,9.88
2022-12-18T09:26:51.566Z,9.00
2022-12-18T09:29:24.385Z,9.32
2022-12-18T09:31:53.602Z,8.60
2022-12-18T09:34:23.215Z,9.18
2022-12-18T09:36:52.640Z,9.27
2022-12-18T09:39:24.442Z,9.95
2022-12-18T09:41:55.658Z,9.55
2022-12-18T09:44:30.753Z,11.60
2022-12-18T09:47:10.543Z,10.73
2022-12-18T09:49:44.868Z,11.55
2022-12-18T09:52:21.801Z,11.18
2022-12-18T09:54:57.659Z,8.73
2022-12-18T09:57:27.806Z,10.95
2022-12-18T10:00:01.140Z,10.50
2022-12-18T10:02:41.138Z,9.80
2022-12-18T10:05:15.325Z,8.52
2022-12-18T10:07:58.133Z,8.27
2022-12-18T10:10:40.999Z,7.82
2022-12-18T10:13:24.100Z,8.23
2022-12-18T10:16:03.878Z,11.52
2022-12-18T10:18:46.915Z,9.80
2022-12-18T10:21:21.375Z,9.15
2022-12-18T10:24:00.511Z,8.88
2022-12-18T10:26:34.107Z,9.63
2022-12-18T10:29:05.839Z,9.45
2022-12-18T10:31:35.531Z,10.20
2022-12-18T10:34:05.083Z,10.27
2022-12-18T10:36:34.805Z,11.82
2022-12-18T10:39:18.557Z,12.82
2022-12-18T10:41:49.564Z,13.63
2022-12-18T10:44:23.273Z,13.98
2022-12-18T10:46:57.134Z,13.75
2022-12-18T10:49:29.442Z,14.20
2022-12-18T10:52:13.708Z,10.82
2022-12-18T10:54:48.931Z,11.25
2022-12-18T10:57:32.501Z,10.85
2022-12-18T11:00:15.833Z,10.63
2022-12-18T11:02:46.010Z,10.50
2022-12-18T11:05:28.851Z,10.05
2022-12-18T11:08:00.269Z,9.75
2022-12-18T11:10:33.878Z,9.63
2022-12-18T11:13:19.371Z,8.48
2022-12-18T11:15:49.366Z,9.82
2022-12-18T11:18:27.498Z,9.43
2022-12-18T11:20:59.088Z,10.05
2022-12-18T11:23:29.785Z,9.07
2022-12-18T11:26:01.519Z,9.15
2022-12-18T11:28:45.965Z,9.52
2022-12-18T11:31:22.416Z,11.07
2022-12-18T11:36:52.805Z,9.00
2022-12-18T11:39:29.858Z,9.32
2022-12-18T11:42:12.886Z,8.52
2022-12-18T11:44:50.589Z,8.82
2022-12-18T11:47:30.790Z,8.73
2022-12-18T11:50:04.914Z,8.93
2022-12-18T11:52:40.469Z,8.88
2022-12-18T11:55:16.212Z,9.77
2022-12-18T11:57:56.815Z,10.52
2022-12-18T12:00:28.015Z,10.35
2022-12-18T12:03:19.557Z,9.68
2022-12-18T12:06:09.780Z,11.32
2022-12-18T12:08:52.715Z,11.00
2022-12-18T12:11:32.796Z,12.15
2022-12-18T12:14:26.688Z,9.02
2022-12-18T12:17:09.754Z,7.25
2022-12-18T12:19:51.555Z,9.30
2022-12-18T12:22:33.285Z,9.48
2022-12-18T12:25:21.160Z,8.75
2022-12-18T12:28:01.886Z,10.05
2022-12-18T12:30:39.158Z,9.10
2022-12-18T12:33:25.468Z,8.15
2022-12-18T12:36:01.417Z,9.70
2022-12-18T12:38:37.791Z,10.05
2022-12-18T12:41:30.987Z,8.23
2022-12-18T12:44:03.801Z,9.32
2022-12-18T12:46:36.468Z,9.48
2022-12-18T12:49:16.666Z,8.75
2022-12-18T12:51:48.588Z,8.88
2022-12-18T12:54:23.872Z,7.82
2022-12-18T12:56:59.949Z,7.93
2022-12-18T12:59:41.126Z,8.32
2022-12-18T13:02:22.834Z,8.43
2022-12-18T13:05:03.219Z,8.80
2022-12-18T13:07:39.589Z,8.70
2022-12-18T13:10:41.691Z,8.70
2022-12-18T13:13:13.414Z,8.88
2022-12-18T13:15:46.802Z,8.88
2022-12-18T13:18:23.690Z,7.30
2022-12-18T13:21:06.194Z,9.15
2022-12-18T13:23:37.666Z,9.45
2022-12-18T13:26:34.017Z,10.48
2022-12-18T13:29:05.393Z,9.48
2022-12-18T13:32:02.395Z,9.73
2022-12-18T13:34:33.512Z,10.23
2022-12-18T13:37:40.848Z,10.38
2022-12-18T13:40:58.032Z,8.48
2022-12-18T13:43:43.902Z,9.95
2022-12-18T13:48:58.098Z,9.27
2022-12-18T13:51:28.616Z,8.98
2022-12-18T13:54:02.297Z,8.35
2022-12-18T13:56:35.259Z,9.07
2022-12-18T13:59:24.977Z,9.80
2022-12-18T14:01:57.026Z,9.40
2022-12-18T14:04:29.873Z,17.00
2022-12-18T14:07:03.988Z,24.88
2022-12-18T14:09:38.069Z,16.65
2022-12-18T14:12:34.611Z,18.83
2022-12-18T14:15:08.644Z,16.25
2022-12-18T14:17:39.644Z,15.73
2022-12-18T14:20:16.739Z,13.95
2022-12-18T14:22:47.918Z,10.68
2022-12-18T14:25:20.762Z,10.95
2022-12-18T14:27:52.429Z,10.55
2022-12-18T14:30:32.466Z,9.00
2022-12-18T14:33:06.775Z,9.13
2022-12-18T14:35:38.849Z,9.82
2022-12-18T14:38:30.316Z,8.40
2022-12-18T14:41:01.855Z,10.60
2022-12-18T14:43:34.193Z,12.27
2022-12-18T14:46:07.268Z,13.45
2022-12-18T14:48:40.921Z,13.63
2022-12-18T14:51:19.883Z,13.07
2022-12-18T14:53:55.784Z,11.73
2022-12-18T14:56:27.851Z,13.32
2022-12-18T14:58:58.994Z,13.25
2022-12-18T15:01:32.755Z,18.02
2022-12-18T15:04:04.145Z,13.63
2022-12-18T15:06:36.388Z,11.60
2022-12-18T15:09:22.468Z,13.18
2022-12-18T15:11:56.982Z,13.82
2022-12-18T15:14:35.885Z,13.00
2022-12-18T15:17:16.620Z,12.75
2022-12-18T15:19:47.853Z,12.68
2022-12-18T15:22:27.447Z,12.15
2022-12-18T15:24:58.017Z,13.82
2022-12-18T15:27:38.939Z,12.90
2022-12-18T15:30:23.846Z,11.90
2022-12-18T15:33:15.539Z,12.10
2022-12-18T15:35:47.162Z,14.23
2022-12-18T15:38:17.097Z,15.05
2022-12-18T15:40:46.554Z,13.07
2022-12-18T15:43:33.910Z,12.55
2022-12-18T15:46:04.141Z,13.50
2022-12-18T15:48:37.814Z,11.13
2022-12-18T15:51:14.385Z,13.63
2022-12-18T15:53:45.017Z,14.32
2022-12-18T15:56:33.002Z,14.27
2022-12-18T15:59:03.824Z,12.05
2022-12-18T16:01:38.187Z,14.30
2022-12-18T16:04:14.052Z,12.85
2022-12-18T16:07:12.604Z,13.05
2022-12-18T16:09:33.332Z,14.70
2022-12-18T16:12:02.942Z,13.73
2022-12-18T16:14:33.610Z,19.80
2022-12-18T16:17:05.326Z,13.23
2022-12-18T16:19:36.391Z,16.98
2022-12-18T16:22:05.986Z,15.13
2022-12-18T16:24:38.502Z,15.13
2022-12-18T16:27:07.892Z,18.02
2022-12-18T16:29:40.044Z,14.15
2022-12-18T16:32:11.014Z,17.48
2022-12-18T16:34:43.022Z,17.02
2022-12-18T16:37:14.334Z,15.05
2022-12-18T16:39:44.540Z,17.75
2022-12-18T16:42:20.132Z,16.48
2022-12-18T16:44:51.517Z,15.57
2022-12-18T16:47:21.847Z,17.13
2022-12-18T16:49:53.412Z,14.68
2022-12-18T16:52:23.088Z,18.23
2022-12-18T16:54:53.052Z,17.40
2022-12-18T16:57:25.209Z,17.58
2022-12-18T16:59:57.721Z,16.25
2022-12-18T17:02:30.992Z,15.68
2022-12-18T17:05:02.331Z,13.57
2022-12-18T17:07:31.876Z,16.98
2022-12-18T17:10:01.386Z,16.42
2022-12-18T17:12:30.985Z,17.58
2022-12-18T17:15:00.927Z,17.33
2022-12-18T17:17:30.303Z,18.27
2022-12-18T17:20:01.225Z,15.30
2022-12-18T17:22:34.792Z,16.13
2022-12-18T17:25:04.535Z,18.48
2022-12-18T17:27:34.016Z,18.27
2022-12-18T17:30:03.693Z,16.45
2022-12-18T17:32:33.001Z,16.70
2022-12-18T17:35:07.135Z,18.75
2022-12-18T17:37:37.813Z,15.52
2022-12-18T17:40:08.957Z,15.88
2022-12-18T17:42:38.373Z,14.80
2022-12-18T17:45:09.050Z,17.98
2022-12-18T17:47:38.631Z,13.70
2022-12-18T17:50:10.481Z,17.98
2022-12-18T17:52:40.783Z,21.88
2022-12-18T17:55:11.347Z,14.95
2022-12-18T17:57:40.657Z,16.35
2022-12-18T18:00:11.790Z,13.25
2022-12-18T18:02:41.176Z,17.70
2022-12-18T18:05:13.252Z,13.05
2022-12-18T18:07:44.304Z,13.80
2022-12-18T18:11:08.905Z,20.83
2022-12-18T18:14:56.040Z,13.15
2022-12-18T18:17:25.833Z,17.70
2022-12-18T18:20:49.663Z,12.23
2022-12-18T18:23:23.224Z,15.63
2022-12-18T18:25:53.593Z,15.18
2022-12-18T18:28:23.321Z,16.02
2022-12-18T18:30:52.623Z,19.25
2022-12-18T18:33:22.390Z,16.95
2022-12-18T18:35:54.243Z,16.83
2022-12-18T18:38:25.742Z,16.83
2022-12-18T18:41:00.882Z,16.95
2022-12-18T18:43:31.100Z,19.17
2022-12-18T18:46:01.339Z,13.02
2022-12-18T18:48:35.737Z,13.45
2022-12-18T18:51:09.716Z,18.33
2022-12-18T18:59:05.645Z,18.95
2022-12-18T19:01:35.011Z,20.05
2022-12-18T19:04:05.117Z,17.20
2022-12-18T19:06:34.670Z,14.45
2022-12-18T19:09:06.678Z,20.92
2022-12-18T19:11:53.638Z,11.32
2022-12-18T19:14:23.494Z,16.48
2022-12-18T19:16:52.769Z,15.77
2022-12-18T19:19:22.569Z,19.25
2022-12-18T19:21:52.342Z,13.88
2022-12-18T19:24:23.290Z,20.35
2022-12-18T19:26:55.393Z,19.98
2022-12-18T19:29:27.836Z,20.58
2022-12-18T19:31:57.185Z,19.40
2022-12-18T19:34:27.033Z,16.45
2022-12-18T19:37:00.048Z,20.63
2022-12-18T19:39:31.399Z,17.15
2022-12-18T19:42:00.679Z,20.40
2022-12-18T19:44:30.272Z,22.60
2022-12-18T19:46:59.562Z,22.13
2022-12-18T19:49:30.340Z,22.55
2022-12-18T19:51:59.725Z,27.77
2022-12-18T19:54:31.076Z,24.73
2022-12-18T19:57:00.440Z,21.58
2022-12-18T19:59:30.068Z,19.95
2022-12-18T20:01:59.470Z,19.63
2022-12-18T20:04:29.421Z,27.80
2022-12-18T20:06:58.724Z,22.40
2022-12-18T20:09:28.395Z,21.30
2022-12-18T20:11:59.640Z,21.50
2022-12-18T20:14:29.195Z,25.45
2022-12-18T20:16:59.210Z,18.13
2022-12-18T20:19:30.610Z,20.02
2022-12-18T20:22:00.474Z,19.88
2022-12-18T20:24:30.236Z,21.88
2022-12-18T20:27:01.104Z,21.65
2022-12-18T20:29:30.799Z,20.27
2022-12-18T20:32:00.366Z,18.08
2022-12-18T20:34:30.004Z,19.90
2022-12-18T20:37:00.257Z,24.95
2022-12-18T20:39:30.445Z,19.27
2022-12-18T20:42:02.190Z,19.67
2022-12-18T20:44:32.069Z,19.92
2022-12-18T20:47:07.018Z,15.85
2022-12-18T20:49:39.581Z,19.02
2022-12-18T20:52:13.754Z,20.08
2022-12-18T20:54:43.314Z,20.10
2022-12-18T20:57:14.017Z,20.23
2022-12-18T20:59:48.098Z,18.50
2022-12-18T21:02:18.108Z,18.38
2022-12-18T21:04:48.051Z,24.65
2022-12-18T21:07:17.560Z,23.27
2022-12-18T21:09:47.106Z,22.27
2022-12-18T21:12:40.246Z,24.83
2022-12-18T21:15:12.791Z,16.83
2022-12-18T21:17:44.991Z,18.70
2022-12-18T21:20:17.340Z,20.48
2022-12-18T21:22:49.271Z,22.80
2022-12-18T21:25:19.160Z,24.05
2022-12-18T21:27:49.921Z,15.05
2022-12-18T21:30:19.783Z,17.55
2022-12-18T21:32:49.542Z,21.85
2022-12-18T21:35:19.295Z,21.33
2022-12-18T21:37:50.392Z,19.13
2022-12-18T21:40:20.044Z,18.50
2022-12-18T21:43:08.351Z,19.23
2022-12-18T21:45:38.074Z,19.67
2022-12-18T21:48:07.790Z,24.65
2022-12-18T21:50:37.363Z,23.13
2022-12-18T21:53:06.850Z,23.30
2022-12-18T21:55:36.531Z,17.73
2022-12-18T21:58:08.138Z,19.17
2022-12-18T22:00:37.772Z,19.80
2022-12-18T22:03:18.136Z,21.33
2022-12-18T22:05:51.273Z,17.02
2022-12-18T22:08:36.358Z,18.48
2022-12-18T22:11:13.816Z,19.77
2022-12-18T22:13:45.311Z,21.15
2022-12-18T22:16:14.930Z,21.67
2022-12-18T22:18:44.240Z,17.05
2022-12-18T22:21:29.033Z,21.75
2022-12-18T22:24:00.428Z,23.50
2022-12-18T22:26:37.907Z,17.55
2022-12-18T22:29:31.575Z,15.43
2022-12-18T22:32:03.242Z,16.45
2022-12-18T22:34:36.542Z,19.10
2022-12-18T22:37:06.391Z,18.13
2022-12-18T22:39:35.617Z,16.77
2022-12-18T22:42:05.969Z,22.35
2022-12-18T22:44:36.854Z,20.42
2022-12-18T22:47:07.466Z,19.83
2022-12-18T22:49:37.507Z,18.38
2022-12-18T22:52:09.387Z,20.27
2022-12-18T22:54:39.051Z,18.98
2022-12-18T22:57:08.625Z,23.58
2022-12-18T22:59:39.245Z,17.67
2022-12-18T23:02:09.075Z,22.83
2022-12-18T23:04:38.528Z,17.98
2022-12-18T23:07:08.165Z,17.75
2022-12-18T23:09:37.592Z,22.48
2022-12-18T23:12:07.960Z,22.10
2022-12-18T23:14:38.812Z,20.58
2022-12-18T23:17:08.475Z,20.55
2022-12-18T23:19:38.164Z,20.55
2022-12-18T23:22:11.702Z,22.77
2022-12-18T23:24:41.308Z,19.63
2022-12-18T23:27:11.743Z,21.67
2022-12-18T23:29:43.141Z,19.00
2022-12-18T23:32:14.955Z,20.15
2022-12-18T23:34:44.210Z,19.63
2022-12-18T23:37:25.030Z,19.65
2022-12-18T23:40:02.980Z,23.27
2022-12-18T23:42:32.822Z,18.50
2022-12-18T23:45:03.914Z,18.63
2022-12-18T23:47:47.941Z,20.97
2022-12-18T23:50:29.072Z,20.73
2022-12-18T23:53:05.543Z,21.25
2022-12-18T23:55:40.583Z,18.23
2022-12-18T23:58:16.810Z,23.30
